Time;durP1;ratioP1;P1;durP2;ratioP2;P2;SDS_P1;SDS_P2;PMS_P1;PMS_P2;Temp;Humidity;BMP_temperature;BMP_pressure;BME280_temperature;BME280_humidity;BME280_pressure;Samples;Min_cycle;Max_cycle;Signal;HPM_P1;HPM_P2
2023/12/30 00:00:00;;;;;;;1.23;0.90;;;22.60;67.10;;;;;;5054660;28;20429;-84
2023/12/30 00:02:28;;;;;;;1.87;1.00;;;22.60;67.10;;;;;;5054494;28;20429;-88
2023/12/30 00:04:55;;;;;;;1.20;0.90;;;22.60;67.10;;;;;;5054582;28;20500;-84
2023/12/30 00:07:22;;;;;;;1.20;1.00;;;22.60;67.10;;;;;;5054369;28;20433;-84
2023/12/30 00:09:48;;;;;;;1.77;1.10;;;22.60;67.00;;;;;;5054369;28;20537;-84
2023/12/30 00:12:15;;;;;;;1.40;1.23;;;22.60;67.10;;;;;;5054447;28;20437;-84
2023/12/30 00:14:42;;;;;;;2.00;1.00;;;22.60;67.10;;;;;;5053614;28;20472;-84
2023/12/30 00:17:09;;;;;;;2.03;1.10;;;22.50;67.00;;;;;;5054269;28;20512;-84
2023/12/30 00:19:42;;;;;;;2.77;1.10;;;22.50;67.00;;;;;;5054424;28;20429;-84
2023/12/30 00:22:09;;;;;;;2.00;1.13;;;22.60;67.10;;;;;;5046926;28;20524;-84
2023/12/30 00:24:35;;;;;;;1.63;1.20;;;22.50;66.90;;;;;;5053863;28;20477;-84
2023/12/30 00:27:02;;;;;;;1.90;0.97;;;22.50;66.90;;;;;;5054259;28;20443;-84
2023/12/30 00:29:29;;;;;;;1.60;1.20;;;22.50;67.00;;;;;;5053965;28;20776;-84
2023/12/30 00:31:56;;;;;;;1.90;1.33;;;22.50;67.00;;;;;;5053881;28;20520;-84
2023/12/30 00:34:23;;;;;;;1.73;1.20;;;22.50;67.00;;;;;;5053851;28;20465;-84
2023/12/30 00:36:51;;;;;;;1.80;1.10;;;22.50;67.10;;;;;;5053938;28;20444;-84
2023/12/30 00:39:17;;;;;;;1.70;1.17;;;22.50;67.10;;;;;;5053887;28;20913;-84
2023/12/30 00:41:44;;;;;;;1.63;1.27;;;22.50;67.10;;;;;;5053552;28;20959;-84
2023/12/30 00:44:11;;;;;;;1.50;1.20;;;22.50;67.10;;;;;;5053728;28;20425;-84
2023/12/30 00:46:38;;;;;;;2.73;1.30;;;22.50;67.00;;;;;;5053776;28;20487;-84
2023/12/30 00:49:05;;;;;;;1.40;0.90;;;22.50;67.10;;;;;;5054103;28;20428;-90
2023/12/30 00:51:32;;;;;;;1.37;1.10;;;22.50;67.00;;;;;;5053820;28;20467;-84
2023/12/30 00:54:00;;;;;;;1.37;0.93;;;22.50;67.00;;;;;;5053568;28;20537;-84
2023/12/30 00:56:26;;;;;;;1.40;1.00;;;22.50;67.00;;;;;;5053574;28;20433;-84
2023/12/30 00:58:53;;;;;;;1.30;1.00;;;22.40;66.90;;;;;;5053611;28;20458;-90
2023/12/30 01:01:20;;;;;;;1.60;1.40;;;22.40;67.00;;;;;;5053376;28;20429;-84
2023/12/30 01:03:47;;;;;;;1.40;1.10;;;22.40;67.00;;;;;;5053318;28;20433;-84
2023/12/30 01:06:13;;;;;;;2.17;1.17;;;22.40;67.00;;;;;;5052544;28;20495;-92
2023/12/30 01:08:39;;;;;;;1.47;1.13;;;22.40;67.10;;;;;;5053174;28;20448;-92
2023/12/30 01:11:07;;;;;;;1.77;1.07;;;22.40;67.10;;;;;;5053304;28;20528;-90
2023/12/30 01:13:34;;;;;;;1.20;0.97;;;22.40;67.10;;;;;;5035552;28;20291;-84
2023/12/30 01:16:05;;;;;;;1.30;1.00;;;22.40;67.10;;;;;;5033443;28;20880;-92
2023/12/30 01:18:32;;;;;;;1.33;1.10;;;22.40;67.00;;;;;;5033246;28;20430;-84
2023/12/30 01:20:58;;;;;;;1.30;0.90;;;22.40;67.00;;;;;;5033187;28;20430;-84
2023/12/30 01:23:25;;;;;;;1.30;0.90;;;22.40;67.00;;;;;;5033410;28;20435;-84
2023/12/30 01:25:52;;;;;;;1.20;0.83;;;22.40;67.00;;;;;;5033542;28;20486;-93
2023/12/30 01:28:20;;;;;;;2.33;1.13;;;22.40;67.10;;;;;;5033341;28;20512;-84
2023/12/30 01:30:47;;;;;;;1.70;1.10;;;22.40;67.00;;;;;;5033441;28;20981;-84
2023/12/30 01:33:14;;;;;;;2.00;1.03;;;22.40;67.10;;;;;;5033183;28;20441;-85
2023/12/30 01:35:41;;;;;;;1.97;1.30;;;22.40;67.00;;;;;;5033149;28;20439;-85
2023/12/30 01:38:08;;;;;;;1.60;1.10;;;22.40;67.10;;;;;;5033036;28;20789;-84
2023/12/30 01:40:35;;;;;;;2.33;1.17;;;22.40;67.10;;;;;;5033313;28;20439;-84
2023/12/30 01:43:02;;;;;;;1.80;0.97;;;22.40;67.10;;;;;;5033339;28;20925;-84
2023/12/30 01:45:30;;;;;;;2.80;1.17;;;22.30;67.00;;;;;;5033073;28;20496;-84
2023/12/30 01:47:58;;;;;;;1.97;1.03;;;22.30;67.00;;;;;;5033347;28;20445;-84
2023/12/30 01:50:24;;;;;;;1.20;0.90;;;22.30;67.10;;;;;;5032959;28;20948;-84
2023/12/30 01:52:52;;;;;;;1.80;1.10;;;22.30;67.10;;;;;;5033186;28;20438;-84
2023/12/30 01:55:19;;;;;;;1.50;1.10;;;22.30;67.10;;;;;;5033398;28;20449;-92
2023/12/30 01:57:46;;;;;;;2.37;1.10;;;22.30;67.10;;;;;;5032854;28;20454;-84
2023/12/30 02:00:19;;;;;;;1.53;1.10;;;22.30;67.10;;;;;;5032985;28;20538;-87
2023/12/30 02:02:49;;;;;;;1.87;1.00;;;22.30;67.90;;;;;;5033054;28;20841;-84
2023/12/30 02:05:17;;;;;;;1.30;1.00;;;22.30;67.10;;;;;;5032994;28;20493;-84
2023/12/30 02:07:46;;;;;;;2.03;1.07;;;22.30;67.10;;;;;;5033169;28;20438;-84
2023/12/30 02:10:13;;;;;;;3.80;1.10;;;22.40;67.10;;;;;;5032930;28;20800;-85
2023/12/30 02:12:40;;;;;;;2.63;1.20;;;22.30;67.00;;;;;;5032493;28;20464;-84
2023/12/30 02:15:14;;;;;;;2.63;0.97;;;22.30;67.00;;;;;;5032493;28;20532;-85
2023/12/30 02:17:41;;;;;;;1.70;1.00;;;22.30;67.00;;;;;;5035506;28;20445;-84
2023/12/30 02:20:11;;;;;;;1.40;1.00;;;22.30;66.90;;;;;;5036077;28;20980;-84
2023/12/30 02:22:42;;;;;;;1.40;0.90;;;22.30;66.90;;;;;;5019059;28;20505;-85
2023/12/30 02:25:09;;;;;;;1.20;0.90;;;22.30;66.90;;;;;;5036697;28;20508;-85
2023/12/30 02:27:36;;;;;;;1.80;1.03;;;22.30;66.90;;;;;;5036223;28;20458;-83
2023/12/30 02:30:03;;;;;;;1.53;0.97;;;22.30;66.90;;;;;;5036321;28;20441;-88
2023/12/30 02:32:29;;;;;;;1.40;1.10;;;22.30;66.90;;;;;;5036426;28;20441;-84
2023/12/30 02:34:56;;;;;;;2.07;1.30;;;22.30;66.90;;;;;;5036021;28;20469;-84
2023/12/30 02:37:23;;;;;;;2.10;1.20;;;22.30;66.80;;;;;;5036357;28;20904;-84
2023/12/30 02:39:51;;;;;;;1.20;0.80;;;22.30;66.80;;;;;;5036207;28;20446;-84
2023/12/30 02:42:18;;;;;;;1.27;0.87;;;22.30;66.80;;;;;;5036393;28;20442;-88
2023/12/30 02:44:45;;;;;;;1.30;0.90;;;22.30;66.80;;;;;;5036044;28;20438;-84
2023/12/30 02:47:12;;;;;;;1.27;1.03;;;22.30;66.80;;;;;;5036139;28;20445;-92
2023/12/30 02:49:43;;;;;;;2.77;1.10;;;22.30;66.80;;;;;;5035920;28;20442;-84
2023/12/30 02:52:10;;;;;;;1.37;1.00;;;22.30;66.80;;;;;;5036191;28;20444;-84
2023/12/30 02:54:37;;;;;;;1.60;1.13;;;22.30;66.80;;;;;;5036037;28;20789;-84
2023/12/30 02:57:06;;;;;;;1.27;0.97;;;22.30;66.80;;;;;;5035472;28;20454;-91
2023/12/30 02:59:33;;;;;;;1.20;0.80;;;22.30;66.80;;;;;;5035895;28;20441;-84
2023/12/30 03:02:00;;;;;;;1.30;0.90;;;22.30;66.70;;;;;;5035950;28;20448;-84
2023/12/30 03:04:26;;;;;;;1.70;1.00;;;22.30;66.80;;;;;;5035854;28;20441;-84
2023/12/30 03:06:53;;;;;;;1.43;0.90;;;22.30;66.70;;;;;;5036039;28;20485;-93
2023/12/30 03:09:20;;;;;;;1.60;0.97;;;22.30;66.70;;;;;;5035565;28;20434;-92
2023/12/30 03:11:47;;;;;;;1.57;1.10;;;22.20;66.70;;;;;;5035780;28;20447;-84
2023/12/30 03:14:15;;;;;;;1.20;0.80;;;22.20;66.60;;;;;;5035303;28;20534;-84
2023/12/30 03:16:42;;;;;;;1.80;0.90;;;22.30;66.70;;;;;;5035407;28;20457;-84
2023/12/30 03:19:09;;;;;;;1.30;0.87;;;22.20;66.60;;;;;;5035656;28;20438;-84
2023/12/30 03:21:35;;;;;;;1.30;1.10;;;22.30;66.70;;;;;;5035142;28;20537;-84
2023/12/30 03:24:02;;;;;;;1.60;0.80;;;22.30;66.70;;;;;;5035383;28;20434;-84
2023/12/30 03:26:29;;;;;;;2.47;0.90;;;22.30;66.70;;;;;;5035426;28;20529;-84
2023/12/30 03:28:56;;;;;;;3.43;1.00;;;22.30;66.70;;;;;;5034652;28;20554;-92
2023/12/30 03:31:26;;;;;;;1.70;1.00;;;22.30;66.70;;;;;;5035430;28;20443;-88
2023/12/30 03:33:53;;;;;;;2.70;0.90;;;22.30;66.60;;;;;;5034985;28;20509;-84
2023/12/30 03:36:20;;;;;;;1.40;1.00;;;22.30;66.60;;;;;;5034971;28;20441;-84
2023/12/30 03:38:48;;;;;;;2.30;1.10;;;22.30;66.60;;;;;;5035047;28;20496;-84
2023/12/30 03:41:15;;;;;;;1.40;1.00;;;22.30;66.60;;;;;;5035082;28;20430;-84
2023/12/30 03:43:41;;;;;;;2.03;0.97;;;22.30;66.60;;;;;;5035161;28;20841;-84
2023/12/30 03:46:08;;;;;;;1.53;0.90;;;22.30;67.50;;;;;;5035438;28;20490;-84
2023/12/30 03:48:37;;;;;;;1.30;0.97;;;22.30;66.60;;;;;;5034984;28;20441;-84
2023/12/30 03:51:05;;;;;;;1.70;1.00;;;22.30;66.50;;;;;;5034915;28;20925;-84
2023/12/30 03:53:32;;;;;;;2.43;1.20;;;22.30;66.60;;;;;;5035145;28;20828;-84
2023/12/30 03:55:59;;;;;;;2.47;1.10;;;22.30;66.50;;;;;;5034735;28;20537;-84
2023/12/30 03:58:26;;;;;;;1.40;0.90;;;22.30;66.60;;;;;;5034753;28;20890;-84
2023/12/30 04:00:53;;;;;;;1.63;1.20;;;22.20;66.50;;;;;;5034785;28;20943;-84
2023/12/30 04:03:20;;;;;;;2.60;1.10;;;22.20;66.50;;;;;;5034729;28;20442;-84
2023/12/30 04:05:48;;;;;;;2.90;1.20;;;22.20;66.40;;;;;;5034466;28;20500;-84
2023/12/30 04:08:14;;;;;;;1.30;1.00;;;22.30;66.50;;;;;;5034630;28;20434;-84
2023/12/30 04:10:41;;;;;;;1.60;1.10;;;22.30;66.50;;;;;;5034523;28;20438;-84
2023/12/30 04:13:09;;;;;;;1.40;1.10;;;22.20;67.20;;;;;;5034331;28;20647;-83
2023/12/30 04:15:36;;;;;;;1.50;0.90;;;22.30;66.50;;;;;;5034499;28;20924;-84
2023/12/30 04:18:03;;;;;;;1.80;1.10;;;22.30;66.50;;;;;;5034294;28;20508;-83
2023/12/30 04:20:30;;;;;;;1.30;1.00;;;22.30;66.50;;;;;;5034487;28;20603;-84
2023/12/30 04:22:58;;;;;;;1.70;1.10;;;22.20;66.30;;;;;;5034553;28;20533;-84
2023/12/30 04:25:25;;;;;;;1.40;0.93;;;22.30;66.40;;;;;;5034052;28;20493;-84
2023/12/30 04:27:52;;;;;;;1.20;0.80;;;22.20;66.30;;;;;;5033886;28;20545;-84
2023/12/30 04:30:19;;;;;;;2.40;1.00;;;22.40;66.60;;;;;;5034174;28;20438;-84
2023/12/30 04:32:45;;;;;;;1.67;0.97;;;22.30;66.40;;;;;;5034230;28;20445;-83
2023/12/30 04:35:12;;;;;;;1.30;0.90;;;22.20;66.30;;;;;;5033830;28;20466;-84
2023/12/30 04:37:39;;;;;;;1.50;0.90;;;22.30;66.40;;;;;;5033774;28;20438;-83
2023/12/30 04:40:08;;;;;;;1.40;0.90;;;22.20;66.30;;;;;;5033796;28;20786;-84
2023/12/30 04:42:35;;;;;;;2.93;1.17;;;22.20;66.30;;;;;;5033657;28;20473;-83
2023/12/30 04:45:02;;;;;;;1.70;1.00;;;22.20;66.30;;;;;;5033759;28;20438;-84
2023/12/30 04:47:29;;;;;;;1.23;0.90;;;22.20;66.40;;;;;;5033772;28;20489;-84
2023/12/30 04:49:56;;;;;;;1.40;1.10;;;22.20;66.30;;;;;;5033519;28;20442;-84
2023/12/30 04:52:23;;;;;;;1.63;1.00;;;22.20;66.20;;;;;;5033607;28;21013;-84
2023/12/30 04:54:50;;;;;;;1.57;0.80;;;22.20;66.30;;;;;;5033870;28;20806;-84
2023/12/30 04:57:18;;;;;;;1.37;1.00;;;22.20;66.20;;;;;;5033516;28;20458;-84
2023/12/30 04:59:45;;;;;;;1.30;0.90;;;22.20;66.30;;;;;;5033739;28;20442;-84
2023/12/30 05:02:12;;;;;;;1.40;0.90;;;22.20;66.20;;;;;;5033495;28;20434;-84
2023/12/30 05:04:38;;;;;;;1.50;1.00;;;22.20;66.10;;;;;;5033640;28;20438;-84
2023/12/30 05:07:05;;;;;;;2.43;0.90;;;22.20;66.20;;;;;;5033497;28;20486;-89
2023/12/30 05:09:35;;;;;;;1.20;0.90;;;22.20;66.20;;;;;;5033359;28;20442;-84
2023/12/30 05:12:03;;;;;;;1.20;0.97;;;22.20;66.10;;;;;;5033491;28;20462;-84
2023/12/30 05:14:31;;;;;;;2.27;1.37;;;22.20;66.10;;;;;;5033440;28;20521;-84
2023/12/30 05:16:58;;;;;;;1.90;0.90;;;22.20;66.10;;;;;;5033286;28;20434;-84
2023/12/30 05:19:24;;;;;;;1.27;0.90;;;22.20;66.10;;;;;;5033394;28;20441;-89
2023/12/30 05:21:52;;;;;;;2.03;0.87;;;22.20;66.10;;;;;;5033333;28;20933;-84
2023/12/30 05:24:19;;;;;;;1.80;1.00;;;22.30;67.00;;;;;;5033306;28;20877;-84
2023/12/30 05:26:46;;;;;;;2.30;0.90;;;22.30;66.20;;;;;;5033201;28;20492;-91
2023/12/30 05:29:13;;;;;;;1.40;0.80;;;22.30;66.10;;;;;;5033245;28;20501;-87
2023/12/30 05:31:41;;;;;;;1.40;1.00;;;22.30;66.10;;;;;;5033327;28;20443;-88
2023/12/30 05:34:08;;;;;;;1.30;0.80;;;22.30;66.20;;;;;;5033191;28;20474;-84
2023/12/30 05:36:37;;;;;;;2.50;0.87;;;22.30;66.10;;;;;;5033210;28;20439;-84
2023/12/30 05:39:04;;;;;;;1.70;0.97;;;22.30;66.10;;;;;;5033036;28;20438;-84
2023/12/30 05:41:31;;;;;;;1.43;0.90;;;22.30;66.10;;;;;;5033115;28;20806;-84
2023/12/30 05:43:58;;;;;;;2.13;1.00;;;22.30;66.10;;;;;;5033005;28;20533;-84
2023/12/30 05:46:26;;;;;;;1.60;0.80;;;22.30;66.10;;;;;;5032879;28;20478;-84
2023/12/30 05:48:54;;;;;;;1.73;1.00;;;22.30;66.00;;;;;;5033090;28;20442;-84
2023/12/30 05:51:21;;;;;;;1.33;0.77;;;22.30;66.00;;;;;;5034393;28;20444;-84
2023/12/30 05:53:47;;;;;;;1.40;0.90;;;22.30;66.00;;;;;;5037167;28;20768;-84
2023/12/30 05:56:21;;;;;;;1.37;0.83;;;22.30;66.00;;;;;;5037080;28;20464;-84
2023/12/30 05:58:48;;;;;;;1.70;1.00;;;22.30;66.00;;;;;;5036848;28;20972;-84
2023/12/30 06:01:15;;;;;;;2.00;1.10;;;22.30;66.00;;;;;;5036814;28;20766;-89
2023/12/30 06:03:42;;;;;;;1.30;0.80;;;22.30;66.00;;;;;;5037198;28;20426;-91
2023/12/30 06:06:10;;;;;;;1.20;0.80;;;22.30;66.00;;;;;;5036724;28;20481;-92
2023/12/30 06:08:37;;;;;;;1.20;0.80;;;22.30;66.00;;;;;;5036806;28;20442;-84
2023/12/30 06:11:04;;;;;;;1.40;0.93;;;22.30;66.00;;;;;;5036641;28;20473;-84
2023/12/30 06:13:31;;;;;;;1.50;1.00;;;22.30;65.90;;;;;;5036522;28;21001;-84
2023/12/30 06:15:58;;;;;;;1.30;0.80;;;22.30;65.90;;;;;;5036679;28;20442;-84
2023/12/30 06:18:30;;;;;;;1.50;0.93;;;22.30;65.90;;;;;;5036526;28;20513;-84
2023/12/30 06:20:57;;;;;;;1.47;0.90;;;22.30;65.90;;;;;;5036839;28;20477;-84
2023/12/30 06:23:27;;;;;;;1.40;0.90;;;22.30;65.80;;;;;;5036591;28;20530;-84
2023/12/30 06:25:54;;;;;;;2.10;1.20;;;22.30;65.80;;;;;;5036439;28;20434;-84
2023/12/30 06:28:21;;;;;;;1.43;1.10;;;22.30;65.90;;;;;;5036268;28;21040;-84
2023/12/30 06:30:47;;;;;;;1.63;1.00;;;22.30;65.90;;;;;;5036382;28;20778;-84
2023/12/30 06:33:14;;;;;;;1.20;0.73;;;22.30;65.90;;;;;;5036307;28;20434;-84
2023/12/30 06:35:41;;;;;;;1.40;0.90;;;22.30;65.90;;;;;;5036315;28;20441;-84
2023/12/30 06:38:08;;;;;;;1.37;0.80;;;22.30;65.90;;;;;;5036363;28;20516;-84
2023/12/30 06:40:36;;;;;;;1.40;0.90;;;22.30;65.90;;;;;;5036161;28;20441;-84
2023/12/30 06:43:03;;;;;;;1.30;1.00;;;22.30;65.80;;;;;;5036290;28;21000;-84
2023/12/30 06:45:30;;;;;;;1.73;1.00;;;22.30;65.80;;;;;;5036105;28;20525;-84
2023/12/30 06:47:57;;;;;;;1.50;1.00;;;22.30;65.80;;;;;;5036066;28;21000;-84
2023/12/30 06:50:24;;;;;;;1.47;0.97;;;22.30;65.80;;;;;;5036427;28;20445;-84
2023/12/30 06:52:51;;;;;;;1.83;1.10;;;22.30;66.60;;;;;;5036329;28;21048;-84
2023/12/30 06:55:17;;;;;;;1.63;1.10;;;22.30;65.80;;;;;;5035976;28;20444;-83
2023/12/30 06:57:46;;;;;;;1.60;1.10;;;22.40;65.90;;;;;;5035862;28;20862;-84
2023/12/30 07:00:13;;;;;;;1.30;0.90;;;22.40;66.20;;;;;;5035712;28;20549;-83
2023/12/30 07:02:41;;;;;;;1.40;1.00;;;22.40;65.90;;;;;;5034504;28;20521;-84
2023/12/30 07:05:08;;;;;;;1.30;0.80;;;22.40;65.90;;;;;;5036005;28;20438;-84
2023/12/30 07:07:35;;;;;;;1.30;0.70;;;22.30;65.70;;;;;;5035637;28;20494;-86
2023/12/30 07:10:03;;;;;;;1.20;0.80;;;22.40;65.80;;;;;;5035441;28;20442;-84
2023/12/30 07:12:30;;;;;;;1.70;1.00;;;22.40;65.80;;;;;;5035509;28;20434;-84
2023/12/30 07:14:58;;;;;;;1.50;0.90;;;22.40;65.90;;;;;;5035790;28;20437;-84
2023/12/30 07:17:26;;;;;;;2.47;1.00;;;22.40;65.80;;;;;;5040780;28;20807;-87
2023/12/30 07:19:53;;;;;;;1.40;0.90;;;22.40;65.80;;;;;;5055046;28;20521;-84
2023/12/30 07:22:20;;;;;;;1.47;0.80;;;22.40;65.80;;;;;;5054365;28;20437;-84
2023/12/30 07:24:47;;;;;;;1.57;0.90;;;22.40;65.70;;;;;;5055069;28;20465;-84
2023/12/30 07:27:14;;;;;;;1.30;1.00;;;22.40;65.60;;;;;;5052706;28;20497;-84
2023/12/30 07:29:41;;;;;;;1.30;0.70;;;22.40;65.70;;;;;;5052762;28;20442;-84
2023/12/30 07:32:09;;;;;;;1.30;0.93;;;22.40;65.70;;;;;;5053041;28;20453;-84
2023/12/30 07:34:36;;;;;;;1.50;0.90;;;22.40;65.70;;;;;;5052823;28;20469;-83
2023/12/30 07:37:04;;;;;;;1.20;0.80;;;22.40;65.60;;;;;;5044011;28;20925;-84
2023/12/30 07:39:32;;;;;;;2.13;0.80;;;22.40;65.60;;;;;;5029828;28;20513;-85
2023/12/30 07:41:59;;;;;;;1.13;0.80;;;22.40;65.60;;;;;;5032373;28;20426;-90
2023/12/30 07:44:27;;;;;;;1.60;0.93;;;22.40;65.60;;;;;;5032029;28;20438;-85
2023/12/30 07:46:54;;;;;;;2.40;0.90;;;22.40;65.60;;;;;;5031133;28;20488;-85
2023/12/30 07:49:22;;;;;;;1.80;1.27;;;22.40;65.60;;;;;;5032086;28;20456;-83
2023/12/30 07:51:49;;;;;;;2.00;1.13;;;22.40;65.60;;;;;;5032827;28;20818;-84
2023/12/30 07:54:17;;;;;;;7.63;1.37;;;22.30;65.60;;;;;;5034837;28;20525;-88
2023/12/30 07:56:44;;;;;;;1.40;0.80;;;22.40;65.70;;;;;;5034731;28;20600;-85
2023/12/30 07:59:11;;;;;;;1.30;0.83;;;22.40;65.70;;;;;;5034595;28;20438;-83
2023/12/30 08:01:42;;;;;;;2.27;1.20;;;22.30;65.70;;;;;;5034690;28;20434;-84
2023/12/30 08:04:09;;;;;;;2.60;1.43;;;22.40;65.60;;;;;;5034656;28;20434;-85
2023/12/30 08:06:40;;;;;;;1.80;1.10;;;22.40;65.60;;;;;;5034688;28;20488;-83
2023/12/30 08:09:07;;;;;;;1.97;1.17;;;22.40;65.60;;;;;;5034492;28;20440;-83
2023/12/30 08:11:35;;;;;;;5.50;1.00;;;22.40;65.60;;;;;;5034586;28;20443;-83
2023/12/30 08:14:02;;;;;;;4.83;1.33;;;22.40;65.60;;;;;;5034350;28;20446;-83
2023/12/30 08:16:29;;;;;;;1.83;1.07;;;22.40;65.60;;;;;;5034436;28;20521;-83
2023/12/30 08:18:55;;;;;;;1.33;1.00;;;22.40;65.70;;;;;;5034245;28;20446;-83
2023/12/30 08:21:22;;;;;;;2.20;1.13;;;22.40;65.60;;;;;;5034418;28;20525;-83
2023/12/30 08:23:50;;;;;;;1.87;1.30;;;22.40;65.60;;;;;;5034409;28;20437;-84
2023/12/30 08:26:17;;;;;;;1.13;0.80;;;22.40;65.60;;;;;;5034524;28;20445;-83
2023/12/30 08:28:45;;;;;;;1.67;1.17;;;22.40;65.60;;;;;;5034031;28;20489;-83
2023/12/30 08:31:12;;;;;;;2.80;1.00;;;22.50;65.70;;;;;;5033948;28;20478;-83
2023/12/30 08:33:39;;;;;;;2.33;1.00;;;22.40;65.70;;;;;;5033919;28;20478;-82
2023/12/30 08:36:06;;;;;;;2.27;1.17;;;22.50;65.80;;;;;;5034331;28;20753;-83
2023/12/30 08:38:33;;;;;;;1.37;0.90;;;22.50;65.80;;;;;;5034007;28;20443;-83
2023/12/30 08:41:01;;;;;;;2.43;1.20;;;22.50;65.80;;;;;;5033812;28;20440;-83
2023/12/30 08:43:28;;;;;;;2.13;1.27;;;22.50;65.80;;;;;;5033931;28;20438;-83
2023/12/30 08:45:55;;;;;;;2.73;1.20;;;22.50;65.80;;;;;;5034034;28;20444;-83
2023/12/30 08:48:22;;;;;;;4.40;1.33;;;22.50;66.00;;;;;;5033710;28;20512;-84
2023/12/30 08:50:49;;;;;;;2.40;1.47;;;22.50;66.00;;;;;;5033713;28;20449;-83
2023/12/30 08:53:18;;;;;;;1.40;1.20;;;22.50;66.00;;;;;;5033772;28;20438;-83
2023/12/30 08:55:45;;;;;;;3.43;1.60;;;22.50;66.80;;;;;;5033800;28;20446;-90
2023/12/30 08:58:13;;;;;;;3.90;1.80;;;22.50;65.90;;;;;;5033451;28;20552;-83
2023/12/30 09:00:41;;;;;;;2.40;1.70;;;22.50;66.10;;;;;;5033769;28;20435;-83
2023/12/30 09:03:07;;;;;;;2.30;1.73;;;22.50;66.10;;;;;;5033505;28;20439;-83
2023/12/30 09:05:34;;;;;;;3.20;1.63;;;22.60;66.10;;;;;;5033498;28;20438;-83
2023/12/30 09:08:03;;;;;;;7.33;1.97;;;22.60;66.10;;;;;;5033413;28;20507;-83
2023/12/30 09:10:31;;;;;;;2.80;2.30;;;22.60;66.10;;;;;;5033498;28;20529;-85
2023/12/30 09:12:59;;;;;;;2.70;2.50;;;22.60;66.00;;;;;;5033782;28;20469;-83
2023/12/30 09:15:27;;;;;;;3.27;2.20;;;22.60;66.10;;;;;;5033449;28;20435;-84
2023/12/30 09:17:57;;;;;;;3.70;3.17;;;22.60;66.20;;;;;;5033506;28;20434;-83
2023/12/30 09:20:24;;;;;;;4.20;2.40;;;22.60;67.10;;;;;;5041360;28;20525;-84
2023/12/30 09:22:51;;;;;;;3.93;2.97;;;22.60;66.20;;;;;;5045398;28;20444;-90
2023/12/30 09:25:18;;;;;;;3.43;2.20;;;22.60;66.20;;;;;;5037253;28;20442;-86
2023/12/30 09:27:45;;;;;;;3.00;2.43;;;22.60;66.30;;;;;;5032891;28;20920;-86
2023/12/30 09:30:13;;;;;;;3.23;2.40;;;22.50;66.10;;;;;;5046021;28;20453;-90
2023/12/30 09:32:42;;;;;;;3.30;2.40;;;22.50;66.10;;;;;;5034706;28;20529;-86
2023/12/30 09:35:10;;;;;;;5.57;2.20;;;22.60;66.20;;;;;;5037345;28;20483;-91
2023/12/30 09:37:37;;;;;;;3.80;2.27;;;22.60;67.20;;;;;;5053394;28;20556;-85
2023/12/30 09:40:04;;;;;;;4.60;2.33;;;22.60;66.20;;;;;;5041540;28;20434;-92
2023/12/30 09:42:31;;;;;;;3.90;2.43;;;22.60;66.20;;;;;;5033290;28;20492;-86
2023/12/30 09:45:00;;;;;;;3.27;2.53;;;22.60;66.20;;;;;;5033206;28;20790;-92
2023/12/30 09:47:29;;;;;;;3.17;2.23;;;22.60;66.10;;;;;;5033677;28;20577;-91
2023/12/30 09:49:57;;;;;;;3.87;2.77;;;22.60;66.10;;;;;;5033089;28;20454;-86
2023/12/30 09:52:24;;;;;;;4.73;3.10;;;22.60;66.10;;;;;;5033109;28;20442;-89
2023/12/30 09:54:51;;;;;;;7.90;2.70;;;22.60;66.00;;;;;;5032949;28;20930;-89
2023/12/30 09:57:17;;;;;;;4.80;3.00;;;22.60;66.40;;;;;;5032970;28;20462;-89
2023/12/30 09:59:47;;;;;;;7.40;3.77;;;22.60;67.60;;;;;;5032906;28;20868;-89
2023/12/30 10:02:14;;;;;;;7.50;2.80;;;22.60;68.00;;;;;;5032852;28;20438;-94
2023/12/30 10:04:41;;;;;;;5.90;3.60;;;22.60;68.00;;;;;;5032977;28;21385;-93
2023/12/30 10:07:11;;;;;;;7.77;3.30;;;22.70;68.20;;;;;;5032964;28;20521;-93
2023/12/30 10:09:38;;;;;;;4.23;2.73;;;22.70;68.30;;;;;;5033251;28;20878;-92
2023/12/30 10:12:06;;;;;;;4.13;2.37;;;22.70;68.20;;;;;;5033124;28;20446;-87
2023/12/30 10:14:33;;;;;;;7.97;2.80;;;22.70;68.30;;;;;;5032985;28;20442;-92
2023/12/30 10:17:01;;;;;;;3.83;2.50;;;22.70;68.10;;;;;;5032491;28;20530;-88
2023/12/30 10:19:28;;;;;;;4.10;2.83;;;22.80;68.00;;;;;;5032663;28;20442;-94
2023/12/30 10:21:56;;;;;;;3.20;2.10;;;22.70;67.90;;;;;;5032504;28;21008;-94
2023/12/30 10:24:25;;;;;;;4.63;2.80;;;22.70;67.60;;;;;;5032820;28;20462;-88
2023/12/30 10:26:52;;;;;;;5.67;3.93;;;22.70;67.50;;;;;;5033173;28;20553;-91
2023/12/30 10:29:19;;;;;;;3.00;2.37;;;22.80;67.60;;;;;;5033030;28;20496;-86
2023/12/30 10:32:00;;;;;;;5.03;3.10;;;22.70;67.50;;;;;;5032426;28;20434;-91
2023/12/30 10:34:27;;;;;;;4.30;3.03;;;22.70;67.40;;;;;;5032825;28;20845;-86
2023/12/30 10:36:54;;;;;;;3.97;2.50;;;22.70;67.40;;;;;;5033178;28;20438;-91
2023/12/30 10:39:24;;;;;;;4.03;2.40;;;22.70;67.40;;;;;;5034019;28;20442;-87
2023/12/30 10:41:51;;;;;;;2.87;1.80;;;22.80;67.50;;;;;;5035108;28;20438;-87
2023/12/30 10:44:18;;;;;;;2.80;2.33;;;22.90;67.60;;;;;;5036198;28;20442;-93
2023/12/30 10:46:47;;;;;;;3.20;2.10;;;22.80;67.40;;;;;;5036102;28;20533;-92
2023/12/30 10:49:17;;;;;;;4.70;2.43;;;22.80;67.30;;;;;;5036141;28;20488;-87
2023/12/30 10:51:45;;;;;;;3.80;2.50;;;22.90;67.40;;;;;;5036480;28;20482;-93
2023/12/30 10:54:19;;;;;;;5.80;2.93;;;22.80;67.30;;;;;;5036231;28;20552;-89
2023/12/30 10:57:03;;;;;;;9.60;2.60;;;22.80;67.30;;;;;;5036992;28;20469;-94
2023/12/30 10:59:31;;;;;;;2.93;2.17;;;22.80;67.10;;;;;;5036569;28;20450;-89
2023/12/30 11:01:58;;;;;;;3.43;2.30;;;22.80;67.10;;;;;;5036634;28;20484;-88
2023/12/30 11:04:26;;;;;;;3.40;2.33;;;22.80;67.10;;;;;;5036814;28;20442;-88
2023/12/30 11:06:56;;;;;;;3.40;2.23;;;22.80;67.00;;;;;;5035978;28;20447;-90
2023/12/30 11:09:23;;;;;;;4.43;2.67;;;22.80;66.90;;;;;;5035714;28;20482;-89
2023/12/30 11:11:53;;;;;;;2.40;1.77;;;22.80;67.00;;;;;;5035437;28;20446;-93
2023/12/30 11:14:20;;;;;;;2.43;2.17;;;22.80;66.90;;;;;;5035510;28;20438;-90
2023/12/30 11:16:50;;;;;;;2.70;2.07;;;22.80;66.90;;;;;;5036065;28;20449;-94
2023/12/30 11:19:26;;;;;;;4.30;2.63;;;22.80;66.80;;;;;;5035853;28;20500;-92
2023/12/30 11:21:54;;;;;;;4.20;2.53;;;22.90;67.00;;;;;;5035679;28;20437;-94
2023/12/30 11:24:22;;;;;;;3.93;2.13;;;22.80;66.80;;;;;;5035349;28;20443;-90
2023/12/30 11:26:53;;;;;;;3.73;2.20;;;22.90;66.90;;;;;;5035319;28;20501;-89
2023/12/30 11:29:24;;;;;;;5.20;2.30;;;22.80;66.80;;;;;;5035479;28;20474;-93
2023/12/30 11:31:52;;;;;;;2.53;1.80;;;22.90;66.90;;;;;;5035453;28;20445;-89
2023/12/30 11:34:20;;;;;;;3.87;1.80;;;22.80;67.60;;;;;;5035186;28;20518;-89
2023/12/30 11:36:48;;;;;;;7.23;2.33;;;22.80;67.60;;;;;;5035251;28;20445;-94
2023/12/30 11:39:23;;;;;;;2.90;1.90;;;22.90;66.90;;;;;;5034838;28;20442;-89
2023/12/30 11:41:53;;;;;;;2.47;1.60;;;22.90;66.90;;;;;;5038471;28;20437;-93
2023/12/30 11:44:19;;;;;;;2.63;1.80;;;22.90;66.80;;;;;;5055224;28;20446;-92
2023/12/30 11:46:47;;;;;;;3.13;2.03;;;22.80;66.60;;;;;;5055018;28;20445;-92
2023/12/30 11:49:19;;;;;;;2.73;1.67;;;22.90;66.80;;;;;;5047630;28;20569;-92
2023/12/30 11:51:46;;;;;;;3.63;2.17;;;22.90;66.80;;;;;;5034708;28;20450;-86
2023/12/30 11:54:13;;;;;;;3.07;1.80;;;22.90;66.80;;;;;;5034914;28;20470;-88
2023/12/30 11:56:41;;;;;;;2.20;1.80;;;22.90;66.80;;;;;;5034668;28;20494;-92
2023/12/30 11:59:10;;;;;;;3.03;1.90;;;22.90;66.70;;;;;;5034535;28;20438;-93
2023/12/30 12:01:37;;;;;;;2.23;1.80;;;22.90;66.70;;;;;;5034968;28;20470;-89
2023/12/30 12:04:04;;;;;;;2.70;2.10;;;22.90;66.80;;;;;;5034807;28;20526;-91
2023/12/30 12:06:31;;;;;;;3.20;1.60;;;22.90;66.70;;;;;;5043470;28;20442;-92
2023/12/30 12:08:58;;;;;;;3.83;2.10;;;22.90;66.70;;;;;;5054238;28;20495;-92
2023/12/30 12:11:24;;;;;;;2.23;1.87;;;22.90;66.70;;;;;;5054526;28;20529;-88
2023/12/30 12:13:57;;;;;;;2.97;1.90;;;22.90;66.70;;;;;;5052337;28;20815;-87
2023/12/30 12:16:27;;;;;;;3.00;1.87;;;22.90;66.60;;;;;;5034525;28;20565;-89
2023/12/30 12:18:55;;;;;;;2.87;2.10;;;22.90;66.70;;;;;;5034287;28;20438;-91
2023/12/30 12:21:22;;;;;;;1.93;1.70;;;22.90;66.50;;;;;;5034256;28;20437;-88
2023/12/30 12:23:49;;;;;;;2.70;1.77;;;22.90;66.50;;;;;;5034068;28;20441;-93
2023/12/30 12:26:17;;;;;;;2.00;1.40;;;23.00;66.60;;;;;;5034520;28;20496;-87
2023/12/30 12:28:44;;;;;;;2.57;1.50;;;23.00;66.60;;;;;;5034099;28;20577;-92
2023/12/30 12:31:14;;;;;;;2.50;1.60;;;23.00;66.50;;;;;;5034416;28;20799;-93
2023/12/30 12:33:43;;;;;;;1.60;1.40;;;23.00;66.50;;;;;;5033774;28;20481;-93
2023/12/30 12:36:09;;;;;;;1.97;1.70;;;23.00;66.50;;;;;;5034014;28;20529;-92
2023/12/30 12:38:36;;;;;;;3.23;1.90;;;23.00;66.40;;;;;;5033819;28;20442;-87
2023/12/30 12:41:03;;;;;;;2.13;1.63;;;23.00;66.40;;;;;;5033817;28;20474;-88
2023/12/30 12:43:31;;;;;;;2.63;1.57;;;23.00;66.50;;;;;;5038996;28;20445;-89
2023/12/30 12:45:58;;;;;;;3.63;1.70;;;23.00;66.50;;;;;;5038006;28;20474;-86
2023/12/30 12:48:25;;;;;;;3.27;1.83;;;23.00;66.40;;;;;;5033865;28;20478;-86